Westfield, Indiana
Current Conditions -  °F | °C
As of 10:55 PM on Sunday 21 Dec 2014 (Local Time) from KTYQ Reporting Station
Clear Clear  
Wind Chill: 24°   Ceiling: Unl
Heat Index: 31°   Visibility: 7mi
Dew Point: 25°   Wind: 8mph
Humidity: 78%   Direction: 140°SE
Pressure: 30.1"   Gusts: NA
Location:  40.04°N, 86.13°W
Report Text: KTYQ 220355Z AUTO 14007KT 7SM CLR 00/M04 A3010 RMK AO2 T10031038
Loading
Personal Weather Stations






























Interactive Weather Map New forecast layout! Learn more

10-Day Weather Forecast

Advertisements
Track Severe Weather on mobile